sensor_id;sensor_type;location;lat;lon;timestamp;P1;durP1;ratioP1;P2;durP2;ratioP2
16669;SDS011;8448;52.034;5.158;2023-06-22T00:02:22;7.97;;;5.68;;
16669;SDS011;8448;52.034;5.158;2023-06-22T00:04:49;7.20;;;5.32;;
16669;SDS011;8448;52.034;5.158;2023-06-22T00:07:18;7.82;;;5.50;;
16669;SDS011;8448;52.034;5.158;2023-06-22T00:09:45;8.27;;;6.53;;
16669;SDS011;8448;52.034;5.158;2023-06-22T00:12:13;8.45;;;6.78;;
16669;SDS011;8448;52.034;5.158;2023-06-22T00:14:40;8.27;;;6.57;;
16669;SDS011;8448;52.034;5.158;2023-06-22T00:17:07;12.60;;;7.60;;
16669;SDS011;8448;52.034;5.158;2023-06-22T00:19:34;7.97;;;6.53;;
16669;SDS011;8448;52.034;5.158;2023-06-22T00:22:05;10.05;;;7.30;;
16669;SDS011;8448;52.034;5.158;2023-06-22T00:24:34;9.65;;;7.20;;
16669;SDS011;8448;52.034;5.158;2023-06-22T00:27:01;10.27;;;6.70;;
16669;SDS011;8448;52.034;5.158;2023-06-22T00:29:30;9.95;;;6.85;;
16669;SDS011;8448;52.034;5.158;2023-06-22T00:31:58;10.50;;;7.38;;
16669;SDS011;8448;52.034;5.158;2023-06-22T00:34:25;9.20;;;6.68;;
16669;SDS011;8448;52.034;5.158;2023-06-22T00:36:52;8.50;;;7.00;;
16669;SDS011;8448;52.034;5.158;2023-06-22T00:39:19;10.27;;;7.78;;
16669;SDS011;8448;52.034;5.158;2023-06-22T00:41:50;8.73;;;6.97;;
16669;SDS011;8448;52.034;5.158;2023-06-22T00:44:17;8.40;;;6.85;;
16669;SDS011;8448;52.034;5.158;2023-06-22T00:46:44;9.88;;;7.40;;
16669;SDS011;8448;52.034;5.158;2023-06-22T00:49:12;8.88;;;7.03;;
16669;SDS011;8448;52.034;5.158;2023-06-22T00:51:40;10.27;;;7.03;;
16669;SDS011;8448;52.034;5.158;2023-06-22T00:54:10;10.30;;;8.00;;
16669;SDS011;8448;52.034;5.158;2023-06-22T00:56:39;7.93;;;6.65;;
16669;SDS011;8448;52.034;5.158;2023-06-22T00:59:08;11.25;;;7.22;;
16669;SDS011;8448;52.034;5.158;2023-06-22T01:01:37;9.73;;;7.18;;
16669;SDS011;8448;52.034;5.158;2023-06-22T01:04:06;9.27;;;7.18;;
16669;SDS011;8448;52.034;5.158;2023-06-22T01:06:35;12.98;;;8.10;;
16669;SDS011;8448;52.034;5.158;2023-06-22T01:09:08;10.65;;;7.88;;
16669;SDS011;8448;52.034;5.158;2023-06-22T01:11:41;8.13;;;7.03;;
16669;SDS011;8448;52.034;5.158;2023-06-22T01:14:14;9.90;;;7.32;;
16669;SDS011;8448;52.034;5.158;2023-06-22T01:16:44;9.68;;;7.75;;
16669;SDS011;8448;52.034;5.158;2023-06-22T01:19:20;10.60;;;7.60;;
16669;SDS011;8448;52.034;5.158;2023-06-22T01:21:55;8.90;;;7.40;;
16669;SDS011;8448;52.034;5.158;2023-06-22T01:24:23;9.85;;;7.55;;
16669;SDS011;8448;52.034;5.158;2023-06-22T01:26:57;9.25;;;7.38;;
16669;SDS011;8448;52.034;5.158;2023-06-22T01:29:33;9.15;;;7.25;;
16669;SDS011;8448;52.034;5.158;2023-06-22T01:32:00;9.68;;;7.90;;
16669;SDS011;8448;52.034;5.158;2023-06-22T01:34:30;10.93;;;6.97;;
16669;SDS011;8448;52.034;5.158;2023-06-22T01:36:58;11.45;;;7.60;;
16669;SDS011;8448;52.034;5.158;2023-06-22T01:39:28;9.48;;;7.40;;
16669;SDS011;8448;52.034;5.158;2023-06-22T01:41:56;10.75;;;7.60;;
16669;SDS011;8448;52.034;5.158;2023-06-22T01:44:24;9.98;;;7.70;;
16669;SDS011;8448;52.034;5.158;2023-06-22T01:46:54;12.45;;;8.50;;
16669;SDS011;8448;52.034;5.158;2023-06-22T01:49:21;9.40;;;7.43;;
16669;SDS011;8448;52.034;5.158;2023-06-22T01:51:49;9.90;;;7.55;;
16669;SDS011;8448;52.034;5.158;2023-06-22T01:54:17;10.38;;;7.68;;
16669;SDS011;8448;52.034;5.158;2023-06-22T01:56:45;12.18;;;8.10;;
16669;SDS011;8448;52.034;5.158;2023-06-22T01:59:14;10.40;;;8.05;;
16669;SDS011;8448;52.034;5.158;2023-06-22T02:01:47;13.38;;;8.88;;
16669;SDS011;8448;52.034;5.158;2023-06-22T02:04:19;10.57;;;8.55;;
16669;SDS011;8448;52.034;5.158;2023-06-22T02:06:48;12.07;;;8.63;;
16669;SDS011;8448;52.034;5.158;2023-06-22T02:09:17;11.88;;;8.65;;
16669;SDS011;8448;52.034;5.158;2023-06-22T02:11:46;10.38;;;7.90;;
16669;SDS011;8448;52.034;5.158;2023-06-22T02:14:14;10.65;;;8.32;;
16669;SDS011;8448;52.034;5.158;2023-06-22T02:16:42;11.50;;;8.52;;
16669;SDS011;8448;52.034;5.158;2023-06-22T02:19:09;11.13;;;9.10;;
16669;SDS011;8448;52.034;5.158;2023-06-22T02:21:38;10.93;;;8.95;;
16669;SDS011;8448;52.034;5.158;2023-06-22T02:24:06;11.98;;;9.18;;
16669;SDS011;8448;52.034;5.158;2023-06-22T02:26:33;11.13;;;8.75;;
16669;SDS011;8448;52.034;5.158;2023-06-22T02:29:01;13.30;;;9.52;;
16669;SDS011;8448;52.034;5.158;2023-06-22T02:31:29;10.93;;;8.60;;
16669;SDS011;8448;52.034;5.158;2023-06-22T02:33:56;14.10;;;9.73;;
16669;SDS011;8448;52.034;5.158;2023-06-22T02:36:24;12.40;;;9.25;;
16669;SDS011;8448;52.034;5.158;2023-06-22T02:38:53;11.80;;;8.38;;
16669;SDS011;8448;52.034;5.158;2023-06-22T02:41:23;11.77;;;8.98;;
16669;SDS011;8448;52.034;5.158;2023-06-22T02:43:50;11.85;;;9.18;;
16669;SDS011;8448;52.034;5.158;2023-06-22T02:46:18;10.73;;;8.10;;
16669;SDS011;8448;52.034;5.158;2023-06-22T02:48:47;10.43;;;8.25;;
16669;SDS011;8448;52.034;5.158;2023-06-22T02:51:15;14.13;;;8.57;;
16669;SDS011;8448;52.034;5.158;2023-06-22T02:53:43;11.48;;;8.80;;
16669;SDS011;8448;52.034;5.158;2023-06-22T02:56:13;10.73;;;8.60;;
16669;SDS011;8448;52.034;5.158;2023-06-22T02:58:43;12.45;;;9.02;;
16669;SDS011;8448;52.034;5.158;2023-06-22T03:01:11;10.00;;;8.75;;
16669;SDS011;8448;52.034;5.158;2023-06-22T03:03:39;13.68;;;9.85;;
16669;SDS011;8448;52.034;5.158;2023-06-22T03:06:07;11.73;;;8.80;;
16669;SDS011;8448;52.034;5.158;2023-06-22T03:08:39;12.70;;;10.00;;
16669;SDS011;8448;52.034;5.158;2023-06-22T03:11:07;11.73;;;8.68;;
16669;SDS011;8448;52.034;5.158;2023-06-22T03:13:36;11.30;;;8.82;;
16669;SDS011;8448;52.034;5.158;2023-06-22T03:16:06;10.82;;;8.77;;
16669;SDS011;8448;52.034;5.158;2023-06-22T03:18:33;12.73;;;9.55;;
16669;SDS011;8448;52.034;5.158;2023-06-22T03:21:00;13.45;;;9.90;;
16669;SDS011;8448;52.034;5.158;2023-06-22T03:23:29;13.07;;;9.57;;
16669;SDS011;8448;52.034;5.158;2023-06-22T03:25:56;12.43;;;9.80;;
16669;SDS011;8448;52.034;5.158;2023-06-22T03:28:24;12.32;;;9.07;;
16669;SDS011;8448;52.034;5.158;2023-06-22T03:30:53;12.45;;;9.63;;
16669;SDS011;8448;52.034;5.158;2023-06-22T03:33:21;10.85;;;9.10;;
16669;SDS011;8448;52.034;5.158;2023-06-22T03:35:52;13.05;;;9.63;;
16669;SDS011;8448;52.034;5.158;2023-06-22T03:38:20;11.18;;;9.02;;
16669;SDS011;8448;52.034;5.158;2023-06-22T03:40:51;9.88;;;8.38;;
16669;SDS011;8448;52.034;5.158;2023-06-22T03:43:19;11.27;;;9.05;;
16669;SDS011;8448;52.034;5.158;2023-06-22T03:45:47;10.75;;;8.80;;
16669;SDS011;8448;52.034;5.158;2023-06-22T03:48:15;11.30;;;9.23;;
16669;SDS011;8448;52.034;5.158;2023-06-22T03:50:43;12.07;;;8.90;;
16669;SDS011;8448;52.034;5.158;2023-06-22T03:53:10;11.65;;;9.02;;
16669;SDS011;8448;52.034;5.158;2023-06-22T03:55:48;11.88;;;8.73;;
16669;SDS011;8448;52.034;5.158;2023-06-22T03:58:16;12.60;;;9.52;;
16669;SDS011;8448;52.034;5.158;2023-06-22T04:00:44;12.40;;;9.73;;
16669;SDS011;8448;52.034;5.158;2023-06-22T04:03:12;13.15;;;9.85;;
16669;SDS011;8448;52.034;5.158;2023-06-22T04:05:41;12.63;;;9.45;;
16669;SDS011;8448;52.034;5.158;2023-06-22T04:08:09;12.18;;;9.38;;
16669;SDS011;8448;52.034;5.158;2023-06-22T04:10:36;11.30;;;9.68;;
16669;SDS011;8448;52.034;5.158;2023-06-22T04:13:04;12.35;;;9.30;;
16669;SDS011;8448;52.034;5.158;2023-06-22T04:15:31;13.98;;;9.98;;
16669;SDS011;8448;52.034;5.158;2023-06-22T04:17:58;13.18;;;10.10;;
16669;SDS011;8448;52.034;5.158;2023-06-22T04:20:26;12.23;;;9.68;;
16669;SDS011;8448;52.034;5.158;2023-06-22T04:22:55;13.75;;;10.73;;
16669;SDS011;8448;52.034;5.158;2023-06-22T04:25:22;13.35;;;10.88;;
16669;SDS011;8448;52.034;5.158;2023-06-22T04:27:49;13.40;;;10.05;;
16669;SDS011;8448;52.034;5.158;2023-06-22T04:30:17;11.98;;;10.55;;
16669;SDS011;8448;52.034;5.158;2023-06-22T04:32:44;13.77;;;10.82;;
16669;SDS011;8448;52.034;5.158;2023-06-22T04:35:21;15.25;;;11.90;;
16669;SDS011;8448;52.034;5.158;2023-06-22T04:37:48;14.13;;;11.55;;
16669;SDS011;8448;52.034;5.158;2023-06-22T04:40:21;14.05;;;10.70;;
16669;SDS011;8448;52.034;5.158;2023-06-22T04:42:49;15.30;;;11.68;;
16669;SDS011;8448;52.034;5.158;2023-06-22T04:45:18;15.15;;;11.93;;
16669;SDS011;8448;52.034;5.158;2023-06-22T04:47:46;12.48;;;11.05;;
16669;SDS011;8448;52.034;5.158;2023-06-22T04:50:13;12.48;;;10.68;;
16669;SDS011;8448;52.034;5.158;2023-06-22T04:52:42;13.93;;;11.20;;
16669;SDS011;8448;52.034;5.158;2023-06-22T04:55:10;13.45;;;10.73;;
16669;SDS011;8448;52.034;5.158;2023-06-22T04:57:39;16.70;;;12.07;;
16669;SDS011;8448;52.034;5.158;2023-06-22T05:00:09;14.27;;;11.50;;
16669;SDS011;8448;52.034;5.158;2023-06-22T05:02:38;12.70;;;10.55;;
16669;SDS011;8448;52.034;5.158;2023-06-22T05:05:06;15.23;;;12.07;;
16669;SDS011;8448;52.034;5.158;2023-06-22T05:07:33;16.17;;;11.70;;
16669;SDS011;8448;52.034;5.158;2023-06-22T05:10:01;14.00;;;10.75;;
16669;SDS011;8448;52.034;5.158;2023-06-22T05:12:30;14.05;;;11.55;;
16669;SDS011;8448;52.034;5.158;2023-06-22T05:14:59;14.50;;;12.07;;
16669;SDS011;8448;52.034;5.158;2023-06-22T05:17:26;13.70;;;10.95;;
16669;SDS011;8448;52.034;5.158;2023-06-22T05:19:53;13.32;;;11.13;;
16669;SDS011;8448;52.034;5.158;2023-06-22T05:22:21;13.05;;;10.23;;
16669;SDS011;8448;52.034;5.158;2023-06-22T05:24:48;14.60;;;11.57;;
16669;SDS011;8448;52.034;5.158;2023-06-22T05:27:16;13.50;;;11.65;;
16669;SDS011;8448;52.034;5.158;2023-06-22T05:29:43;12.82;;;11.10;;
16669;SDS011;8448;52.034;5.158;2023-06-22T05:32:12;13.38;;;11.50;;
16669;SDS011;8448;52.034;5.158;2023-06-22T05:34:39;14.20;;;11.77;;
16669;SDS011;8448;52.034;5.158;2023-06-22T05:37:06;18.58;;;12.25;;
16669;SDS011;8448;52.034;5.158;2023-06-22T05:39:35;15.45;;;12.52;;
16669;SDS011;8448;52.034;5.158;2023-06-22T05:42:04;14.40;;;11.68;;
16669;SDS011;8448;52.034;5.158;2023-06-22T05:44:32;15.30;;;12.60;;
16669;SDS011;8448;52.034;5.158;2023-06-22T05:46:59;13.45;;;11.20;;
16669;SDS011;8448;52.034;5.158;2023-06-22T05:49:29;13.13;;;10.73;;
16669;SDS011;8448;52.034;5.158;2023-06-22T05:51:58;14.43;;;12.07;;
16669;SDS011;8448;52.034;5.158;2023-06-22T05:54:27;13.07;;;11.40;;
16669;SDS011;8448;52.034;5.158;2023-06-22T05:56:54;15.90;;;12.02;;
16669;SDS011;8448;52.034;5.158;2023-06-22T05:59:21;15.93;;;11.70;;
16669;SDS011;8448;52.034;5.158;2023-06-22T06:01:49;19.73;;;13.10;;
16669;SDS011;8448;52.034;5.158;2023-06-22T06:04:17;15.65;;;12.73;;
16669;SDS011;8448;52.034;5.158;2023-06-22T06:06:45;16.08;;;13.48;;
16669;SDS011;8448;52.034;5.158;2023-06-22T06:09:13;15.68;;;13.32;;
16669;SDS011;8448;52.034;5.158;2023-06-22T06:11:40;17.40;;;13.57;;
16669;SDS011;8448;52.034;5.158;2023-06-22T06:14:08;16.42;;;13.30;;
16669;SDS011;8448;52.034;5.158;2023-06-22T06:16:35;14.95;;;12.27;;
16669;SDS011;8448;52.034;5.158;2023-06-22T06:19:03;17.40;;;14.13;;
16669;SDS011;8448;52.034;5.158;2023-06-22T06:21:31;14.98;;;12.45;;
16669;SDS011;8448;52.034;5.158;2023-06-22T06:23:59;18.13;;;14.73;;
16669;SDS011;8448;52.034;5.158;2023-06-22T06:26:26;19.40;;;14.80;;
16669;SDS011;8448;52.034;5.158;2023-06-22T06:28:55;20.15;;;15.88;;
16669;SDS011;8448;52.034;5.158;2023-06-22T06:31:23;17.30;;;14.88;;
16669;SDS011;8448;52.034;5.158;2023-06-22T06:33:53;22.92;;;18.25;;
16669;SDS011;8448;52.034;5.158;2023-06-22T06:36:21;18.98;;;15.82;;
16669;SDS011;8448;52.034;5.158;2023-06-22T06:38:48;19.52;;;16.30;;
16669;SDS011;8448;52.034;5.158;2023-06-22T06:41:17;23.25;;;17.02;;
16669;SDS011;8448;52.034;5.158;2023-06-22T06:43:45;22.67;;;18.13;;
16669;SDS011;8448;52.034;5.158;2023-06-22T06:46:12;22.63;;;17.95;;
16669;SDS011;8448;52.034;5.158;2023-06-22T06:48:40;22.85;;;16.98;;
16669;SDS011;8448;52.034;5.158;2023-06-22T06:51:07;19.88;;;16.08;;
16669;SDS011;8448;52.034;5.158;2023-06-22T06:53:35;18.17;;;14.82;;
16669;SDS011;8448;52.034;5.158;2023-06-22T06:56:03;19.23;;;15.95;;
16669;SDS011;8448;52.034;5.158;2023-06-22T06:58:32;19.23;;;16.10;;
16669;SDS011;8448;52.034;5.158;2023-06-22T07:01:00;15.60;;;13.98;;
16669;SDS011;8448;52.034;5.158;2023-06-22T07:03:28;17.67;;;15.45;;
16669;SDS011;8448;52.034;5.158;2023-06-22T07:05:55;20.63;;;16.60;;
16669;SDS011;8448;52.034;5.158;2023-06-22T07:08:22;21.05;;;16.38;;
16669;SDS011;8448;52.034;5.158;2023-06-22T07:10:50;16.00;;;12.23;;
16669;SDS011;8448;52.034;5.158;2023-06-22T07:13:19;19.33;;;14.65;;
16669;SDS011;8448;52.034;5.158;2023-06-22T07:15:48;14.93;;;12.90;;
16669;SDS011;8448;52.034;5.158;2023-06-22T07:18:16;15.13;;;12.48;;
16669;SDS011;8448;52.034;5.158;2023-06-22T07:20:43;16.88;;;14.43;;
16669;SDS011;8448;52.034;5.158;2023-06-22T07:23:10;17.30;;;14.93;;
16669;SDS011;8448;52.034;5.158;2023-06-22T07:25:38;19.73;;;14.63;;
16669;SDS011;8448;52.034;5.158;2023-06-22T07:28:06;14.23;;;11.98;;
16669;SDS011;8448;52.034;5.158;2023-06-22T07:30:34;15.82;;;12.55;;
16669;SDS011;8448;52.034;5.158;2023-06-22T07:33:02;14.52;;;11.35;;
16669;SDS011;8448;52.034;5.158;2023-06-22T07:35:33;12.98;;;10.25;;
16669;SDS011;8448;52.034;5.158;2023-06-22T07:38:00;9.43;;;7.72;;
16669;SDS011;8448;52.034;5.158;2023-06-22T07:40:28;10.13;;;8.73;;
16669;SDS011;8448;52.034;5.158;2023-06-22T07:42:56;12.63;;;9.30;;
16669;SDS011;8448;52.034;5.158;2023-06-22T07:45:23;11.02;;;9.50;;
16669;SDS011;8448;52.034;5.158;2023-06-22T07:47:50;12.27;;;9.73;;
16669;SDS011;8448;52.034;5.158;2023-06-22T07:50:19;11.98;;;10.00;;
16669;SDS011;8448;52.034;5.158;2023-06-22T07:52:47;10.07;;;8.85;;
16669;SDS011;8448;52.034;5.158;2023-06-22T07:55:14;11.02;;;9.82;;
16669;SDS011;8448;52.034;5.158;2023-06-22T07:57:41;10.30;;;9.25;;
16669;SDS011;8448;52.034;5.158;2023-06-22T08:00:09;12.48;;;9.80;;
16669;SDS011;8448;52.034;5.158;2023-06-22T08:02:42;11.32;;;10.05;;
16669;SDS011;8448;52.034;5.158;2023-06-22T08:05:11;11.32;;;10.02;;
16669;SDS011;8448;52.034;5.158;2023-06-22T08:07:40;10.52;;;9.32;;
16669;SDS011;8448;52.034;5.158;2023-06-22T08:10:10;10.85;;;9.40;;
16669;SDS011;8448;52.034;5.158;2023-06-22T08:12:37;10.65;;;8.77;;
16669;SDS011;8448;52.034;5.158;2023-06-22T08:15:05;14.00;;;9.77;;
16669;SDS011;8448;52.034;5.158;2023-06-22T08:17:34;11.02;;;9.40;;
16669;SDS011;8448;52.034;5.158;2023-06-22T08:20:02;12.20;;;8.98;;
16669;SDS011;8448;52.034;5.158;2023-06-22T08:22:34;12.32;;;9.68;;
16669;SDS011;8448;52.034;5.158;2023-06-22T08:25:03;12.55;;;9.10;;
16669;SDS011;8448;52.034;5.158;2023-06-22T08:27:31;10.45;;;9.35;;
16669;SDS011;8448;52.034;5.158;2023-06-22T08:29:59;8.88;;;6.85;;
16669;SDS011;8448;52.034;5.158;2023-06-22T08:32:26;7.68;;;6.18;;
16669;SDS011;8448;52.034;5.158;2023-06-22T08:34:54;6.55;;;5.85;;
16669;SDS011;8448;52.034;5.158;2023-06-22T08:37:22;8.27;;;6.80;;
16669;SDS011;8448;52.034;5.158;2023-06-22T08:39:55;6.78;;;6.07;;
16669;SDS011;8448;52.034;5.158;2023-06-22T08:42:24;7.20;;;5.88;;
16669;SDS011;8448;52.034;5.158;2023-06-22T08:44:52;7.72;;;4.80;;
16669;SDS011;8448;52.034;5.158;2023-06-22T08:47:19;4.97;;;4.45;;
16669;SDS011;8448;52.034;5.158;2023-06-22T08:49:48;5.47;;;4.80;;
16669;SDS011;8448;52.034;5.158;2023-06-22T08:52:15;7.82;;;5.50;;
16669;SDS011;8448;52.034;5.158;2023-06-22T08:54:43;5.78;;;5.15;;
16669;SDS011;8448;52.034;5.158;2023-06-22T08:57:11;9.43;;;5.85;;
16669;SDS011;8448;52.034;5.158;2023-06-22T08:59:39;8.32;;;4.65;;
16669;SDS011;8448;52.034;5.158;2023-06-22T09:02:07;5.60;;;4.65;;
16669;SDS011;8448;52.034;5.158;2023-06-22T09:04:34;5.00;;;4.50;;
16669;SDS011;8448;52.034;5.158;2023-06-22T09:07:02;5.97;;;4.75;;
16669;SDS011;8448;52.034;5.158;2023-06-22T09:09:30;5.78;;;4.55;;
16669;SDS011;8448;52.034;5.158;2023-06-22T09:11:57;5.07;;;4.50;;
16669;SDS011;8448;52.034;5.158;2023-06-22T09:14:24;6.38;;;5.50;;
16669;SDS011;8448;52.034;5.158;2023-06-22T09:16:53;6.00;;;5.18;;
16669;SDS011;8448;52.034;5.158;2023-06-22T09:19:20;6.38;;;5.68;;
16669;SDS011;8448;52.034;5.158;2023-06-22T09:21:48;5.93;;;5.32;;
16669;SDS011;8448;52.034;5.158;2023-06-22T09:24:15;7.57;;;5.82;;
16669;SDS011;8448;52.034;5.158;2023-06-22T09:26:42;7.32;;;5.88;;
16669;SDS011;8448;52.034;5.158;2023-06-22T09:29:10;7.22;;;6.45;;
16669;SDS011;8448;52.034;5.158;2023-06-22T09:31:37;8.48;;;6.57;;
16669;SDS011;8448;52.034;5.158;2023-06-22T09:34:06;9.38;;;5.63;;
16669;SDS011;8448;52.034;5.158;2023-06-22T09:36:33;5.97;;;5.13;;
16669;SDS011;8448;52.034;5.158;2023-06-22T09:39:02;6.18;;;5.57;;
16669;SDS011;8448;52.034;5.158;2023-06-22T09:41:31;7.50;;;5.60;;
16669;SDS011;8448;52.034;5.158;2023-06-22T09:43:59;8.25;;;6.07;;
16669;SDS011;8448;52.034;5.158;2023-06-22T09:46:26;5.43;;;4.78;;
16669;SDS011;8448;52.034;5.158;2023-06-22T09:48:53;6.82;;;4.88;;
16669;SDS011;8448;52.034;5.158;2023-06-22T09:51:22;5.13;;;4.18;;
16669;SDS011;8448;52.034;5.158;2023-06-22T09:53:50;6.75;;;4.55;;
16669;SDS011;8448;52.034;5.158;2023-06-22T09:56:17;5.90;;;4.50;;
16669;SDS011;8448;52.034;5.158;2023-06-22T09:58:45;4.78;;;4.13;;
16669;SDS011;8448;52.034;5.158;2023-06-22T10:01:15;6.15;;;4.40;;
16669;SDS011;8448;52.034;5.158;2023-06-22T10:03:43;5.28;;;4.13;;
16669;SDS011;8448;52.034;5.158;2023-06-22T10:06:10;5.40;;;4.30;;
16669;SDS011;8448;52.034;5.158;2023-06-22T10:08:39;4.82;;;4.25;;
16669;SDS011;8448;52.034;5.158;2023-06-22T10:11:06;5.80;;;5.05;;
16669;SDS011;8448;52.034;5.158;2023-06-22T10:13:34;5.35;;;4.70;;
16669;SDS011;8448;52.034;5.158;2023-06-22T10:16:01;4.97;;;4.43;;
16669;SDS011;8448;52.034;5.158;2023-06-22T10:18:28;6.53;;;3.97;;
16669;SDS011;8448;52.034;5.158;2023-06-22T10:20:56;4.63;;;4.10;;
16669;SDS011;8448;52.034;5.158;2023-06-22T10:23:24;4.30;;;3.90;;
16669;SDS011;8448;52.034;5.158;2023-06-22T10:25:53;5.60;;;3.65;;
16669;SDS011;8448;52.034;5.158;2023-06-22T10:28:22;5.63;;;3.92;;
16669;SDS011;8448;52.034;5.158;2023-06-22T10:30:50;7.78;;;4.10;;
16669;SDS011;8448;52.034;5.158;2023-06-22T10:33:17;7.93;;;3.85;;
16669;SDS011;8448;52.034;5.158;2023-06-22T10:35:45;5.40;;;3.85;;
16669;SDS011;8448;52.034;5.158;2023-06-22T10:38:13;6.78;;;3.53;;
16669;SDS011;8448;52.034;5.158;2023-06-22T10:40:40;4.82;;;3.97;;
16669;SDS011;8448;52.034;5.158;2023-06-22T10:43:09;6.47;;;4.00;;
16669;SDS011;8448;52.034;5.158;2023-06-22T10:45:36;5.25;;;4.15;;
16669;SDS011;8448;52.034;5.158;2023-06-22T10:48:04;3.92;;;3.55;;
16669;SDS011;8448;52.034;5.158;2023-06-22T10:50:31;4.28;;;3.42;;
16669;SDS011;8448;52.034;5.158;2023-06-22T10:52:59;3.97;;;3.58;;
16669;SDS011;8448;52.034;5.158;2023-06-22T10:55:26;5.53;;;4.05;;
16669;SDS011;8448;52.034;5.158;2023-06-22T10:57:54;4.97;;;4.10;;
16669;SDS011;8448;52.034;5.158;2023-06-22T11:00:23;5.10;;;4.38;;
16669;SDS011;8448;52.034;5.158;2023-06-22T11:02:50;5.25;;;4.75;;
16669;SDS011;8448;52.034;5.158;2023-06-22T11:05:18;5.03;;;4.53;;
16669;SDS011;8448;52.034;5.158;2023-06-22T11:07:45;6.82;;;5.15;;
16669;SDS011;8448;52.034;5.158;2023-06-22T11:10:14;5.40;;;4.57;;
16669;SDS011;8448;52.034;5.158;2023-06-22T11:12:42;8.30;;;5.57;;
16669;SDS011;8448;52.034;5.158;2023-06-22T11:15:09;6.60;;;4.68;;
16669;SDS011;8448;52.034;5.158;2023-06-22T11:17:38;9.52;;;5.45;;
16669;SDS011;8448;52.034;5.158;2023-06-22T11:20:06;9.23;;;5.32;;
16669;SDS011;8448;52.034;5.158;2023-06-22T11:22:36;8.52;;;6.38;;
16669;SDS011;8448;52.034;5.158;2023-06-22T11:25:04;8.05;;;6.50;;
16669;SDS011;8448;52.034;5.158;2023-06-22T11:27:32;7.03;;;6.05;;
16669;SDS011;8448;52.034;5.158;2023-06-22T11:30:00;9.77;;;6.95;;
16669;SDS011;8448;52.034;5.158;2023-06-22T11:32:27;7.93;;;7.10;;
16669;SDS011;8448;52.034;5.158;2023-06-22T11:34:56;7.38;;;6.57;;
16669;SDS011;8448;52.034;5.158;2023-06-22T11:37:24;451.33;;;48.22;;
16669;SDS011;8448;52.034;5.158;2023-06-22T11:39:51;35.72;;;11.13;;
16669;SDS011;8448;52.034;5.158;2023-06-22T11:42:20;15.40;;;7.75;;
16669;SDS011;8448;52.034;5.158;2023-06-22T11:44:48;11.02;;;7.82;;
16669;SDS011;8448;52.034;5.158;2023-06-22T11:47:16;11.23;;;8.27;;
16669;SDS011;8448;52.034;5.158;2023-06-22T11:49:43;12.73;;;7.97;;
16669;SDS011;8448;52.034;5.158;2023-06-22T11:52:12;11.13;;;8.35;;
16669;SDS011;8448;52.034;5.158;2023-06-22T11:54:39;10.48;;;8.65;;
16669;SDS011;8448;52.034;5.158;2023-06-22T11:57:07;10.63;;;9.02;;
16669;SDS011;8448;52.034;5.158;2023-06-22T11:59:34;9.68;;;8.65;;
16669;SDS011;8448;52.034;5.158;2023-06-22T12:02:01;8.52;;;7.53;;
16669;SDS011;8448;52.034;5.158;2023-06-22T12:04:30;12.02;;;8.85;;
16669;SDS011;8448;52.034;5.158;2023-06-22T12:06:58;8.63;;;7.53;;
16669;SDS011;8448;52.034;5.158;2023-06-22T12:09:27;8.93;;;7.30;;
16669;SDS011;8448;52.034;5.158;2023-06-22T12:11:54;8.85;;;7.13;;
16669;SDS011;8448;52.034;5.158;2023-06-22T12:14:21;8.85;;;7.22;;
16669;SDS011;8448;52.034;5.158;2023-06-22T12:16:49;8.27;;;6.75;;
16669;SDS011;8448;52.034;5.158;2023-06-22T12:19:16;9.07;;;7.18;;
16669;SDS011;8448;52.034;5.158;2023-06-22T12:21:44;7.70;;;6.30;;
16669;SDS011;8448;52.034;5.158;2023-06-22T12:24:11;10.90;;;6.22;;
16669;SDS011;8448;52.034;5.158;2023-06-22T12:26:40;6.95;;;6.13;;
16669;SDS011;8448;52.034;5.158;2023-06-22T12:29:07;7.55;;;6.72;;
16669;SDS011;8448;52.034;5.158;2023-06-22T12:31:35;8.48;;;6.85;;
16669;SDS011;8448;52.034;5.158;2023-06-22T12:34:03;11.13;;;6.97;;
16669;SDS011;8448;52.034;5.158;2023-06-22T12:36:31;10.35;;;7.50;;
16669;SDS011;8448;52.034;5.158;2023-06-22T12:38:58;10.57;;;7.40;;
16669;SDS011;8448;52.034;5.158;2023-06-22T12:41:26;10.57;;;8.25;;
16669;SDS011;8448;52.034;5.158;2023-06-22T12:43:54;10.98;;;8.20;;
16669;SDS011;8448;52.034;5.158;2023-06-22T12:46:22;10.50;;;8.88;;
16669;SDS011;8448;52.034;5.158;2023-06-22T12:48:49;14.15;;;9.48;;
16669;SDS011;8448;52.034;5.158;2023-06-22T12:51:20;12.02;;;8.77;;
16669;SDS011;8448;52.034;5.158;2023-06-22T12:53:48;14.55;;;9.75;;
16669;SDS011;8448;52.034;5.158;2023-06-22T12:56:15;13.00;;;8.48;;
16669;SDS011;8448;52.034;5.158;2023-06-22T12:58:43;11.70;;;9.15;;
16669;SDS011;8448;52.034;5.158;2023-06-22T13:01:11;10.13;;;8.80;;
16669;SDS011;8448;52.034;5.158;2023-06-22T13:03:39;12.00;;;8.25;;
16669;SDS011;8448;52.034;5.158;2023-06-22T13:06:08;12.95;;;9.77;;
16669;SDS011;8448;52.034;5.158;2023-06-22T13:08:35;10.25;;;8.77;;
16669;SDS011;8448;52.034;5.158;2023-06-22T13:11:02;12.90;;;9.50;;
16669;SDS011;8448;52.034;5.158;2023-06-22T13:13:30;13.10;;;10.20;;
16669;SDS011;8448;52.034;5.158;2023-06-22T13:15:59;14.07;;;11.73;;
16669;SDS011;8448;52.034;5.158;2023-06-22T13:18:27;12.15;;;9.80;;
16669;SDS011;8448;52.034;5.158;2023-06-22T13:20:55;9.98;;;8.85;;
16669;SDS011;8448;52.034;5.158;2023-06-22T13:23:23;13.57;;;11.05;;
16669;SDS011;8448;52.034;5.158;2023-06-22T13:25:50;10.55;;;8.75;;
16669;SDS011;8448;52.034;5.158;2023-06-22T13:28:17;13.70;;;11.85;;
16669;SDS011;8448;52.034;5.158;2023-06-22T13:30:46;19.17;;;15.63;;
16669;SDS011;8448;52.034;5.158;2023-06-22T13:33:13;18.73;;;14.45;;
16669;SDS011;8448;52.034;5.158;2023-06-22T13:35:42;17.42;;;15.10;;
16669;SDS011;8448;52.034;5.158;2023-06-22T13:38:09;17.40;;;15.43;;
16669;SDS011;8448;52.034;5.158;2023-06-22T13:40:37;14.80;;;12.90;;
16669;SDS011;8448;52.034;5.158;2023-06-22T13:43:05;18.13;;;14.43;;
16669;SDS011;8448;52.034;5.158;2023-06-22T13:45:32;15.88;;;14.18;;
16669;SDS011;8448;52.034;5.158;2023-06-22T13:47:59;20.88;;;16.67;;
16669;SDS011;8448;52.034;5.158;2023-06-22T13:50:27;18.63;;;16.17;;
16669;SDS011;8448;52.034;5.158;2023-06-22T13:52:56;19.55;;;17.13;;
16669;SDS011;8448;52.034;5.158;2023-06-22T13:55:23;17.80;;;15.85;;
16669;SDS011;8448;52.034;5.158;2023-06-22T13:57:51;19.00;;;16.98;;
16669;SDS011;8448;52.034;5.158;2023-06-22T14:00:19;20.95;;;17.42;;
16669;SDS011;8448;52.034;5.158;2023-06-22T14:02:46;20.48;;;16.65;;
16669;SDS011;8448;52.034;5.158;2023-06-22T14:05:14;21.00;;;17.42;;
16669;SDS011;8448;52.034;5.158;2023-06-22T14:07:41;20.98;;;18.25;;
16669;SDS011;8448;52.034;5.158;2023-06-22T14:10:10;19.48;;;17.48;;
16669;SDS011;8448;52.034;5.158;2023-06-22T14:12:37;23.05;;;19.48;;
16669;SDS011;8448;52.034;5.158;2023-06-22T14:15:05;20.42;;;16.90;;
16669;SDS011;8448;52.034;5.158;2023-06-22T14:17:33;18.88;;;16.92;;
16669;SDS011;8448;52.034;5.158;2023-06-22T14:20:00;18.73;;;16.70;;
16669;SDS011;8448;52.034;5.158;2023-06-22T14:22:28;24.60;;;19.30;;
16669;SDS011;8448;52.034;5.158;2023-06-22T14:24:56;19.45;;;17.35;;
16669;SDS011;8448;52.034;5.158;2023-06-22T14:27:25;22.15;;;17.58;;
16669;SDS011;8448;52.034;5.158;2023-06-22T14:29:52;20.50;;;16.88;;
16669;SDS011;8448;52.034;5.158;2023-06-22T14:32:20;20.35;;;16.85;;
16669;SDS011;8448;52.034;5.158;2023-06-22T14:34:47;19.55;;;16.98;;
16669;SDS011;8448;52.034;5.158;2023-06-22T14:37:15;19.25;;;17.08;;
16669;SDS011;8448;52.034;5.158;2023-06-22T14:39:42;19.50;;;16.40;;
16669;SDS011;8448;52.034;5.158;2023-06-22T14:42:10;17.35;;;15.43;;
16669;SDS011;8448;52.034;5.158;2023-06-22T14:44:38;17.65;;;15.73;;
16669;SDS011;8448;52.034;5.158;2023-06-22T14:47:06;18.00;;;16.10;;
16669;SDS011;8448;52.034;5.158;2023-06-22T14:49:35;16.73;;;14.68;;
16669;SDS011;8448;52.034;5.158;2023-06-22T14:52:02;16.15;;;13.70;;
16669;SDS011;8448;52.034;5.158;2023-06-22T14:54:31;15.50;;;13.80;;